Terminal Aerodrome Forecast
Issued by NWS Jackson, MS

Home | Current Version | Previous Version | Text Only | Print | Product List | Glossary On
Versions: 1 2 3 4 5 6 7 8 9 10 11 12 13
000
FTUS44 KJAN 260520
TAFGWO
TAF
KGWO 260520Z 2606/2706 14006KT P6SM BKN060 OVC100
     FM260800 16005KT 6SM BR OVC015
     FM261100 17005KT 4SM BR OVC015
     FM261400 18007KT P6SM OVC025
     FM261800 16007KT P6SM VCTS BKN050CB
     FM270300 15005KT P6SM OVC100=

USA.gov is the U.S. government's official web portal to all federal, state and local government web resources and services.